Time;durP1;ratioP1;P1;durP2;ratioP2;P2;SDS_P1;SDS_P2;PMS_P1;PMS_P2;Temp;Humidity;BMP_temperature;BMP_pressure;BME280_temperature;BME280_humidity;BME280_pressure;Samples;Min_cycle;Max_cycle;Signal;HPM_P1;HPM_P2
2022/01/04 00:01:24;;;;;;;33.90;8.20;;;;;;;;;;4903885;29;21040;-81
2022/01/04 00:03:51;;;;;;;27.98;7.70;;;;;;;;;;4887315;29;20437;-82
2022/01/04 00:06:17;;;;;;;29.02;7.63;;;;;;;;;;4919919;29;20452;-82
2022/01/04 00:08:43;;;;;;;28.70;7.90;;;;;;;;;;4902985;29;20464;-82
2022/01/04 00:13:41;;;;;;;26.15;7.43;;;;;;;;;;4902817;29;20445;-82
2022/01/04 00:16:08;;;;;;;32.55;8.05;;;;;;;;;;4901240;29;21012;-83
2022/01/04 00:18:35;;;;;;;26.10;8.00;;;;;;;;;;4886579;29;20448;-82
2022/01/04 00:21:01;;;;;;;29.67;8.20;;;;;;;;;;4904170;29;20433;-81
2022/01/04 00:23:27;;;;;;;28.88;8.27;;;;;;;;;;4909675;29;20450;-83
2022/01/04 00:25:54;;;;;;;30.02;8.50;;;;;;;;;;4901139;29;20441;-83
2022/01/04 00:28:20;;;;;;;33.03;9.48;;;;;;;;;;4885340;29;20466;-83
2022/01/04 00:30:46;;;;;;;31.05;9.80;;;;;;;;;;4901784;29;20433;-83
2022/01/04 00:33:13;;;;;;;33.35;10.48;;;;;;;;;;4901754;29;20437;-83
2022/01/04 00:35:40;;;;;;;32.65;9.48;;;;;;;;;;4888468;29;20444;-83
2022/01/04 00:38:06;;;;;;;31.17;8.13;;;;;;;;;;4920879;29;20475;-82
2022/01/04 00:40:32;;;;;;;27.58;7.43;;;;;;;;;;4888840;29;20520;-83
2022/01/04 00:42:59;;;;;;;34.20;7.88;;;;;;;;;;4901809;29;20445;-83
2022/01/04 00:45:25;;;;;;;29.88;7.97;;;;;;;;;;4901944;29;20481;-83
2022/01/04 00:50:22;;;;;;;30.73;8.75;;;;;;;;;;4897003;29;20488;-83
2022/01/04 00:52:48;;;;;;;29.98;8.23;;;;;;;;;;4903049;29;20440;-83
2022/01/04 00:55:14;;;;;;;33.08;8.80;;;;;;;;;;4903475;29;20499;-83
2022/01/04 00:57:41;;;;;;;32.10;9.05;;;;;;;;;;4931368;29;20425;-82
2022/01/04 01:00:08;;;;;;;38.58;9.65;;;;;;;;;;4918344;29;20445;-83
2022/01/04 01:02:34;;;;;;;37.20;8.65;;;;;;;;;;4904800;29;20531;-82
2022/01/04 01:05:00;;;;;;;32.45;8.32;;;;;;;;;;4901060;29;20433;-84
2022/01/04 01:07:26;;;;;;;34.30;8.27;;;;;;;;;;4918984;29;20949;-83
2022/01/04 01:10:16;;;;;;;28.63;8.65;;;;;;;;;;4919624;29;20429;-83
2022/01/04 01:12:39;;;;;;;36.20;8.60;;;;;;;;;;4902628;29;20439;-83
2022/01/04 01:15:06;;;;;;;31.70;8.00;;;;;;;;;;4905735;29;20436;-82
2022/01/04 01:17:32;;;;;;;37.00;8.10;;;;;;;;;;4906618;29;21015;-82
2022/01/04 01:19:58;;;;;;;31.40;8.20;;;;;;;;;;4944860;29;20472;-83
2022/01/04 01:22:24;;;;;;;40.05;8.13;;;;;;;;;;4936102;29;20455;-83
2022/01/04 01:24:50;;;;;;;32.43;8.23;;;;;;;;;;4917682;29;20452;-83
2022/01/04 01:27:16;;;;;;;30.45;8.45;;;;;;;;;;4903729;29;20449;-83
2022/01/04 01:29:43;;;;;;;33.50;8.25;;;;;;;;;;4903359;29;20477;-83
2022/01/04 01:32:09;;;;;;;33.23;8.43;;;;;;;;;;4885606;29;20836;-83
2022/01/04 01:34:35;;;;;;;29.63;7.63;;;;;;;;;;4903134;29;20921;-83
2022/01/04 01:37:01;;;;;;;36.37;7.87;;;;;;;;;;4886512;29;20432;-83
2022/01/04 01:39:27;;;;;;;38.58;8.90;;;;;;;;;;4900796;29;20937;-83
2022/01/04 01:41:53;;;;;;;37.30;9.00;;;;;;;;;;4936200;29;20492;-82
2022/01/04 01:44:20;;;;;;;36.47;8.63;;;;;;;;;;4953646;28;20440;-83
2022/01/04 01:46:46;;;;;;;33.13;8.23;;;;;;;;;;4922556;29;20482;-83
2022/01/04 01:49:12;;;;;;;31.85;7.68;;;;;;;;;;4920702;29;20427;-83
2022/01/04 01:51:39;;;;;;;36.22;8.60;;;;;;;;;;4903026;29;20467;-83
2022/01/04 01:54:05;;;;;;;36.63;8.63;;;;;;;;;;4919395;29;20439;-83
2022/01/04 01:56:31;;;;;;;35.40;8.90;;;;;;;;;;4924568;29;20448;-83
2022/01/04 01:58:58;;;;;;;29.52;8.98;;;;;;;;;;4909205;29;20439;-83
2022/01/04 02:01:24;;;;;;;28.02;8.23;;;;;;;;;;4908221;29;20435;-83
2022/01/04 02:03:50;;;;;;;36.92;9.40;;;;;;;;;;4924614;29;20437;-83
2022/01/04 02:06:17;;;;;;;39.03;9.63;;;;;;;;;;4908208;29;20459;-82
2022/01/04 02:08:44;;;;;;;33.07;9.33;;;;;;;;;;4928359;29;20438;-83
2022/01/04 02:11:11;;;;;;;34.13;9.63;;;;;;;;;;4929416;29;20435;-82
2022/01/04 02:13:38;;;;;;;35.47;9.38;;;;;;;;;;4924736;29;20445;-83
2022/01/04 02:16:04;;;;;;;30.38;8.05;;;;;;;;;;4925311;29;20431;-83
2022/01/04 02:18:30;;;;;;;29.85;8.43;;;;;;;;;;4924639;29;20436;-83
2022/01/04 02:20:56;;;;;;;35.10;9.03;;;;;;;;;;4925564;29;20423;-83
2022/01/04 02:23:24;;;;;;;30.13;7.40;;;;;;;;;;4907877;29;20493;-82
2022/01/04 02:25:50;;;;;;;34.50;8.40;;;;;;;;;;4923825;29;20432;-83
2022/01/04 02:28:20;;;;;;;39.05;8.77;;;;;;;;;;4925032;29;20431;-83
2022/01/04 02:30:47;;;;;;;27.67;8.20;;;;;;;;;;4893159;29;20435;-83
2022/01/04 02:33:14;;;;;;;28.45;9.05;;;;;;;;;;4893520;29;20482;-82
2022/01/04 02:35:40;;;;;;;34.28;8.52;;;;;;;;;;4921739;29;20431;-83
2022/01/04 02:38:06;;;;;;;30.10;8.73;;;;;;;;;;4940139;29;20447;-83
2022/01/04 02:40:32;;;;;;;32.85;9.10;;;;;;;;;;4915708;29;20481;-83
2022/01/04 02:42:59;;;;;;;30.67;8.88;;;;;;;;;;4900565;29;20864;-83
2022/01/04 02:45:25;;;;;;;38.83;9.13;;;;;;;;;;4938108;29;20426;-82
2022/01/04 02:47:52;;;;;;;32.97;8.18;;;;;;;;;;4936844;29;20447;-83
2022/01/04 02:50:18;;;;;;;30.08;8.55;;;;;;;;;;4905789;29;20433;-83
2022/01/04 02:52:44;;;;;;;30.35;8.80;;;;;;;;;;4919783;29;20664;-81
2022/01/04 02:55:14;;;;;;;36.25;10.30;;;;;;;;;;4906163;29;20949;-83
2022/01/04 02:57:41;;;;;;;33.70;9.38;;;;;;;;;;4897676;29;20445;-83
2022/01/04 03:00:09;;;;;;;37.17;10.50;;;;;;;;;;4936118;29;20438;-83
2022/01/04 03:02:35;;;;;;;30.42;9.45;;;;;;;;;;4906776;29;20437;-83
2022/01/04 03:05:02;;;;;;;34.70;9.80;;;;;;;;;;4888478;29;20491;-83
2022/01/04 03:07:29;;;;;;;38.90;10.77;;;;;;;;;;4905475;29;20441;-82
2022/01/04 03:09:55;;;;;;;33.28;9.52;;;;;;;;;;4903145;29;20469;-83
2022/01/04 03:12:21;;;;;;;33.25;9.45;;;;;;;;;;4901994;29;20448;-83
2022/01/04 03:14:48;;;;;;;31.27;9.47;;;;;;;;;;4893461;29;20434;-83
2022/01/04 03:17:14;;;;;;;36.40;9.70;;;;;;;;;;4909326;29;20431;-83
2022/01/04 03:19:40;;;;;;;31.38;9.07;;;;;;;;;;4911851;29;20437;-81
2022/01/04 03:22:06;;;;;;;38.88;10.10;;;;;;;;;;4920331;29;20432;-81
2022/01/04 03:24:32;;;;;;;38.35;10.43;;;;;;;;;;4915892;29;20953;-82
2022/01/04 03:26:58;;;;;;;33.88;9.23;;;;;;;;;;4891041;29;20436;-81
2022/01/04 03:29:24;;;;;;;30.15;9.05;;;;;;;;;;4897435;29;20439;-81
2022/01/04 03:31:51;;;;;;;33.67;9.85;;;;;;;;;;4910786;29;20484;-81
2022/01/04 03:34:17;;;;;;;31.25;9.40;;;;;;;;;;4889290;29;20445;-81
2022/01/04 03:36:43;;;;;;;36.03;9.80;;;;;;;;;;4905498;29;20425;-81
2022/01/04 03:39:11;;;;;;;40.17;10.63;;;8.50;99.90;;;;;;4907572;29;20452;-81
2022/01/04 03:41:38;;;;;;;32.75;9.88;;;;;;;;;;4905110;29;20432;-82
2022/01/04 03:44:04;;;;;;;32.38;10.20;;;;;;;;;;4921993;29;20528;-81
2022/01/04 03:46:31;;;;;;;37.42;10.75;;;;;;;;;;4922301;29;20427;-82
2022/01/04 03:48:57;;;;;;;33.13;10.65;;;;;;;;;;4954058;28;20451;-82
2022/01/04 03:51:23;;;;;;;37.28;12.68;;;;;;;;;;4923793;29;20503;-82
2022/01/04 03:53:49;;;;;;;40.10;11.70;;;;;;;;;;4904634;29;20447;-82
2022/01/04 03:56:15;;;;;;;35.25;11.88;;;;;;;;;;4922148;29;20442;-82
2022/01/04 03:58:41;;;;;;;37.92;11.60;;;;;;;;;;4907203;29;20545;-82
2022/01/04 04:01:08;;;;;;;36.85;11.68;;;;;;;;;;4937145;29;20459;-82
2022/01/04 04:03:34;;;;;;;31.08;11.15;;;;;;;;;;4922368;29;20450;-82
2022/01/04 04:06:00;;;;;;;37.30;12.60;;;;;;;;;;4905924;29;20423;-81
2022/01/04 04:08:27;;;;;;;37.88;11.40;;;;;;;;;;4923033;29;20427;-82
2022/01/04 04:10:53;;;;;;;37.50;11.63;;;;;;;;;;4905808;29;20488;-82
2022/01/04 04:13:19;;;;;;;41.05;12.25;;;;;;;;;;4904771;29;21091;-81
2022/01/04 04:15:45;;;;;;;43.78;12.60;;;;;;;;;;4923992;29;20507;-81
2022/01/04 04:18:13;;;;;;;41.03;14.27;;;;;;;;;;4921191;29;20902;-82
2022/01/04 04:20:39;;;;;;;39.73;14.80;;;;;;;;;;4922346;29;20419;-82
2022/01/04 04:23:07;;;;;;;38.90;13.70;;;;;;;;;;4952206;28;20436;-82
2022/01/04 04:25:34;;;;;;;41.35;14.23;;;;;;;;;;4920389;29;20475;-81
2022/01/04 04:28:00;;;;;;;43.88;14.93;;;;;;;;;;4904779;29;20439;-81
2022/01/04 04:30:26;;;;;;;44.28;15.23;;;;;;;;;;4938725;29;20424;-82
2022/01/04 04:32:52;;;;;;;44.55;14.68;;;;;;;;;;4906973;29;20971;-82
2022/01/04 04:35:19;;;;;;;41.08;16.52;;;;;;;;;;4898267;29;20428;-81
2022/01/04 04:37:45;;;;;;;50.08;15.40;;;;;;;;;;4921068;29;20495;-82
2022/01/04 04:40:11;;;;;;;39.43;14.90;;;;;;;;;;4922475;29;20462;-81
2022/01/04 04:42:37;;;;;;;39.10;15.32;;;;;;;;;;4903350;29;20463;-81
2022/01/04 04:45:04;;;;;;;41.53;15.43;;;;;;;;;;4922769;29;20479;-81
2022/01/04 04:47:30;;;;;;;47.30;16.42;;;;;;;;;;4905531;29;20522;-81
2022/01/04 04:49:56;;;;;;;42.30;17.17;;;;;;;;;;4921736;29;20446;-81
2022/01/04 04:52:22;;;;;;;46.42;17.98;;;;;;;;;;4921636;29;20435;-81
2022/01/04 04:54:48;;;;;;;44.90;16.90;;;;;;;;;;4921552;29;20463;-82
2022/01/04 04:57:15;;;;;;;44.05;17.58;;;;;;;;;;4938199;29;20463;-82
2022/01/04 04:59:41;;;;;;;45.67;17.63;;;;;;;;;;4905962;29;20440;-81
2022/01/04 05:02:07;;;;;;;46.95;17.50;;;;;;;;;;4921112;29;20431;-82
2022/01/04 05:04:37;;;;;;;44.30;17.53;;;;;;;;;;4921842;29;20436;-81
2022/01/04 05:07:03;;;;;;;44.22;16.75;;;;;;;;;;4922334;29;20439;-80
2022/01/04 05:09:29;;;;;;;46.55;17.08;;;;;;;;;;4905237;29;20496;-81
2022/01/04 05:11:56;;;;;;;40.97;17.02;;;;;;;;;;4921512;29;20436;-82
2022/01/04 05:14:22;;;;;;;45.25;17.15;;;;;;;;;;4921013;29;20431;-81
2022/01/04 05:16:48;;;;;;;43.75;17.35;;;;;;;;;;4905804;29;20432;-82
2022/01/04 05:19:14;;;;;;;44.25;16.83;;;;;;;;;;4907831;29;20439;-81
2022/01/04 05:21:41;;;;;;;42.37;16.43;;;;;;;;;;4923839;29;20483;-81
2022/01/04 05:24:07;;;;;;;45.85;15.90;;;;;;;;;;4903044;29;21006;-81
2022/01/04 05:26:33;;;;;;;41.85;15.52;;;;;;;;;;4904664;29;20479;-80
2022/01/04 05:29:02;;;;;;;42.58;16.25;;;;;;;;;;4922409;29;20484;-81
2022/01/04 05:31:29;;;;;;;38.90;14.80;;;;;;;;;;4906968;29;20456;-81
2022/01/04 05:33:55;;;;;;;33.17;12.98;;;;;;;;;;4908211;29;20518;-81
2022/01/04 05:36:21;;;;;;;40.17;12.67;;;;;;;;;;4908702;29;20431;-81
2022/01/04 05:38:47;;;;;;;40.65;13.73;;;;;;;;;;4893857;29;20444;-79
2022/01/04 05:41:14;;;;;;;40.45;13.27;;;;;;;;;;4906814;29;20502;-81
2022/01/04 05:43:40;;;;;;;42.22;13.50;;;;;;;;;;4907918;29;20443;-81
2022/01/04 05:46:06;;;;;;;41.78;13.88;;;;;;;;;;4908095;29;20463;-81
2022/01/04 05:48:32;;;;;;;42.00;14.43;;;;;;;;;;4921686;29;20509;-81
2022/01/04 05:50:58;;;;;;;42.37;13.30;;;;;;;;;;4909375;29;20475;-81
2022/01/04 05:53:24;;;;;;;39.42;13.30;;;;;;;;;;4924155;29;20435;-81
2022/01/04 05:55:51;;;;;;;40.53;13.25;;;;;;;;;;4889217;29;20445;-81
2022/01/04 05:58:17;;;;;;;38.13;12.55;;;;;;;;;;4923823;29;20450;-81
2022/01/04 06:00:43;;;;;;;39.03;13.13;;;;;;;;;;4923601;29;20507;-81
2022/01/04 06:03:09;;;;;;;39.38;12.13;;;;;;;;;;4923629;29;20856;-81
2022/01/04 06:05:35;;;;;;;37.78;13.23;;;;;;;;;;4923537;29;20520;-81
2022/01/04 06:08:01;;;;;;;45.78;14.38;;;;;;;;;;4924106;29;20478;-81
2022/01/04 06:10:27;;;;;;;44.25;15.52;;;;;;;;;;4907339;29;20503;-81
2022/01/04 06:15:22;;;;;;;43.58;14.65;;;;;;;;;;4908565;29;20431;-81
2022/01/04 06:17:49;;;;;;;50.03;15.95;;;;;;;;;;4905383;29;20459;-81
2022/01/04 06:20:21;;;;;;;43.83;14.13;;;;;;;;;;4908355;29;20518;-81
2022/01/04 06:22:48;;;;;;;48.53;15.15;;;;;;;;;;4939805;29;20463;-81
2022/01/04 06:25:15;;;;;;;46.97;15.18;;;;;;;;;;4923405;29;20509;-81
2022/01/04 06:27:42;;;;;;;48.03;15.32;;;;;;;;;;4922430;29;20483;-80
2022/01/04 06:30:08;;;;;;;42.47;15.13;;;;;;;;;;4902259;29;20432;-81
2022/01/04 06:32:36;;;;;;;75.28;18.70;;;;;;;;;;4891975;29;20427;-80
2022/01/04 06:35:02;;;;;;;48.97;16.07;;;;;;;;;;4906815;29;20439;-81
2022/01/04 06:37:28;;;;;;;35.22;14.43;;;;;;;;;;4939482;29;20840;-80
2022/01/04 06:39:55;;;;;;;50.97;15.05;;;;;;;;;;4938215;29;20475;-78
2022/01/04 06:42:21;;;;;;;56.35;15.65;;;;;;;;;;4923018;29;20439;-77
2022/01/04 06:44:47;;;;;;;45.92;16.05;;;;;;;;;;4922497;29;20966;-77
2022/01/04 06:47:13;;;;;;;86.38;18.45;;;;;;;;;;4953975;28;20436;-77
2022/01/04 06:49:39;;;;;;;37.28;12.00;;;;;;;;;;4922917;29;20439;-78
2022/01/04 06:52:06;;;;;;;33.13;12.00;;;;;;;;;;4922607;29;20458;-76
2022/01/04 06:54:32;;;;;;;34.97;12.63;;;;;;;;;;4923434;29;20442;-78
2022/01/04 06:56:58;;;;;;;33.28;10.98;;;;;;;;;;4938259;29;20443;-78
2022/01/04 06:59:24;;;;;;;36.63;10.55;;;;;;;;;;4907360;29;20436;-77
2022/01/04 07:01:50;;;;;;;37.42;11.45;;;;;;;;;;4921885;29;20431;-77
2022/01/04 07:04:16;;;;;;;32.25;9.93;;;;;;;;;;4921812;29;20443;-77
2022/01/04 07:06:42;;;;;;;32.80;10.00;;;;;;;;;;4938185;29;20445;-77
2022/01/04 07:09:09;;;;;;;34.72;9.88;;;;;;;;;;4939275;29;20438;-77
2022/01/04 07:11:36;;;;;;;26.90;9.38;;;;;;;;;;4923731;29;20424;-76
2022/01/04 07:14:02;;;;;;;33.60;9.77;;;;;;;;;;4906041;28;20442;-78
2022/01/04 07:16:28;;;;;;;29.40;9.85;;;;;;;;;;4920329;29;20445;-77
2022/01/04 07:18:54;;;;;;;29.75;12.27;;;;;;;;;;4922004;29;20435;-78
2022/01/04 07:21:21;;;;;;;31.35;10.23;;;;;;;;;;4921827;29;20431;-78
2022/01/04 07:23:51;;;;;;;26.33;9.33;;;8.10;99.90;;;;;;4952939;28;20443;-78
2022/01/04 07:26:17;;;;;;;24.50;8.90;;;8.00;99.90;;;;;;4920207;29;20547;-79
2022/01/04 07:28:44;;;;;;;32.17;10.63;;;;;;;;;;4907080;29;20434;-78
2022/01/04 07:31:10;;;;;;;32.20;10.80;;;;;;;;;;4949356;28;20526;-78
2022/01/04 07:33:37;;;;;;;31.30;10.13;;;;;;;;;;4902558;29;20465;-78
2022/01/04 07:36:06;;;;;;;26.38;10.10;;;;;;;;;;4922787;29;20443;-78
2022/01/04 07:38:32;;;;;;;30.23;10.27;;;;;;;;;;4921317;29;20506;-78
2022/01/04 07:40:58;;;;;;;34.60;13.85;;;;;;;;;;4907635;29;20513;-78
2022/01/04 07:43:24;;;;;;;39.22;12.65;;;;;;;;;;4889757;29;20467;-78
2022/01/04 07:45:50;;;;;;;35.53;13.57;;;;;;;;;;4938707;29;20970;-78
2022/01/04 07:48:16;;;;;;;29.70;12.02;;;;;;;;;;4920105;29;20436;-78
2022/01/04 07:50:43;;;;;;;29.30;10.93;;;;;;;;;;4905662;29;20442;-77
2022/01/04 07:53:09;;;;;;;37.37;9.77;;;;;;;;;;4919993;29;20884;-80
2022/01/04 07:55:35;;;;;;;25.40;8.75;;;;;;;;;;4922005;29;20466;-81
2022/01/04 07:58:01;;;;;;;28.80;10.13;;;;;;;;;;4923779;29;20502;-79
2022/01/04 08:00:28;;;;;;;24.02;7.50;;;;;;;;;;4907431;29;20435;-80
2022/01/04 08:02:55;;;;;;;21.63;8.73;;;;;;;;;;4906412;29;20522;-80
2022/01/04 08:05:23;;;;;;;25.35;9.20;;;;;;;;;;4938558;29;20790;-79
2022/01/04 08:07:50;;;;;;;30.17;9.80;;;;;;;;;;4915761;29;20446;-80
2022/01/04 08:10:16;;;;;;;18.67;7.18;;;;;;;;;;4907467;29;20427;-81
2022/01/04 08:12:42;;;;;;;17.05;5.50;;;;;;;;;;4912023;29;20797;-81
2022/01/04 08:15:08;;;;;;;21.60;6.22;;;;;;;;;;4922749;29;20435;-81
2022/01/04 08:17:36;;;;;;;19.20;5.82;;;;;;;;;;4906019;29;20435;-81
2022/01/04 08:20:03;;;;;;;16.20;5.80;;;;;;;;;;4923182;29;20436;-82
2022/01/04 08:22:32;;;;;;;19.20;5.50;;;;;;;;;;4905344;29;20441;-82
2022/01/04 08:25:01;;;;;;;21.45;5.57;;;;;;;;;;4905189;29;20878;-83
2022/01/04 08:27:27;;;;;;;17.58;5.18;;;;;;;;;;4907256;29;20434;-81
2022/01/04 08:29:53;;;;;;;17.60;4.97;;;;;;;;;;4938342;29;20427;-82
2022/01/04 08:32:20;;;;;;;12.97;4.37;;;;;;;;;;4910681;29;20532;-81
2022/01/04 08:34:46;;;;;;;15.40;4.00;;;;;;;;;;4907119;29;20929;-81
2022/01/04 08:37:12;;;;;;;15.88;5.00;;;;;;;;;;4922191;29;20443;-81
2022/01/04 08:39:38;;;;;;;14.65;4.22;;;;;;;;;;4920901;29;20490;-82
2022/01/04 08:42:04;;;;;;;14.23;4.80;;;;;;;;;;4923392;29;20459;-82
2022/01/04 08:44:32;;;;;;;16.77;4.80;;;;;;;;;;4890357;29;20443;-82
2022/01/04 08:46:58;;;;;;;15.10;4.85;;;;;;;;;;4939465;29;20439;-82
2022/01/04 08:49:25;;;;;;;15.88;5.00;;;;;;;;;;4923289;29;20530;-82
2022/01/04 08:51:51;;;;;;;16.88;5.38;;;;;;;;;;4920365;29;20507;-82
2022/01/04 08:54:17;;;;;;;18.90;5.38;;;;;;;;;;4922863;29;20420;-82
2022/01/04 08:56:43;;;;;;;19.25;5.43;;;;;;;;;;4908515;29;20494;-82
2022/01/04 08:59:10;;;;;;;23.38;6.00;;;;;;;;;;4907020;29;20440;-82
2022/01/04 09:01:37;;;;;;;21.50;6.20;;;;;;;;;;4913404;29;20464;-81
2022/01/04 09:04:06;;;;;;;27.33;6.40;;;;;;;;;;4906547;29;20471;-83
2022/01/04 09:06:32;;;;;;;21.40;6.22;;;;;;;;;;4926173;29;20449;-82
2022/01/04 09:08:58;;;;;;;12.77;3.90;;;;;;;;;;4910732;29;20466;-81
2022/01/04 09:11:24;;;;;;;13.15;3.88;;;;;;;;;;4912314;29;20467;-81
2022/01/04 09:13:55;;;;;;;11.23;3.30;;;;;;;;;;4925897;29;20486;-80
2022/01/04 09:19:08;;;;;;;8.10;2.35;;;;;;;;;;4956117;28;20443;-80
2022/01/04 09:21:34;;;;;;;6.47;1.70;;;;;;;;;;4909064;29;20432;-81
2022/01/04 09:24:00;;;;;;;10.07;2.30;;;;;;;;;;4925357;29;20443;-81
2022/01/04 09:26:28;;;;;;;8.07;1.97;;;;;;;;;;4926684;29;20487;-80
2022/01/04 09:28:57;;;;;;;7.30;1.73;;;;;;;;;;4926098;29;20802;-80
2022/01/04 09:31:24;;;;;;;9.27;1.80;;;;;;;;;;4958280;28;20514;-82
2022/01/04 09:33:51;;;;;;;7.13;1.60;;;;;;;;;;4910873;29;20446;-81
2022/01/04 09:36:17;;;;;;;7.38;1.60;;;;;;;;;;4916700;29;21053;-81
2022/01/04 09:38:43;;;;;;;5.97;1.80;;;;;;;;;;4909876;29;20513;-81
2022/01/04 09:41:09;;;;;;;6.00;1.73;;;;;;;;;;4915267;29;20429;-81
2022/01/04 09:43:36;;;;;;;6.78;1.75;;;;;;;;;;4921666;29;20437;-82
2022/01/04 09:46:04;;;;;;;5.97;1.52;;;;;;;;;;4906094;29;20528;-82
2022/01/04 09:48:30;;;;;;;9.53;1.77;;;;;;;;;;4885353;29;20520;-78
2022/01/04 09:50:57;;;;;;;9.02;1.75;;;;;;;;;;4906747;29;20437;-79
2022/01/04 09:53:24;;;;;;;7.60;1.75;;;;;;;;;;4904594;29;20429;-79
2022/01/04 09:55:51;;;;;;;7.30;1.70;;;6.40;99.90;;;;;;4890121;29;20437;-79
2022/01/04 09:58:19;;;;;;;7.60;1.55;;;;;;;;;;4890224;29;20429;-78
2022/01/04 10:00:45;;;;;;;8.10;1.60;;;;;;;;;;4877380;29;20449;-79
2022/01/04 10:03:13;;;;;;;6.63;1.70;;;;;;;;;;4926367;29;20829;-79
2022/01/04 10:05:39;;;;;;;6.33;1.57;;;;;;;;;;4898487;29;21724;-80
2022/01/04 10:08:07;;;;;;;7.47;1.80;;;;;;;;;;4882730;29;20485;-79
2022/01/04 10:10:34;;;;;;;8.93;1.98;;;;;;;;;;4897400;29;20540;-77
2022/01/04 10:13:05;;;;;;;7.55;1.60;;;;;;;;;;4897352;29;20453;-79
2022/01/04 10:15:31;;;;;;;8.80;1.90;;;;;;;;;;4895499;29;20449;-78
2022/01/04 10:18:20;;;;;;;8.68;2.05;;;;;;;;;;4913614;29;20452;-78
2022/01/04 10:20:53;;;;;;;6.00;1.88;;;;;;;;;;4914712;29;21660;-80
2022/01/04 10:23:22;;;;;;;8.35;1.80;;;;;;;;;;4898319;29;20850;-79
2022/01/04 10:25:48;;;;;;;7.80;1.80;;;;;;;;;;4896742;29;20433;-79
2022/01/04 10:28:28;;;;;;;5.93;1.58;;;;;;;;;;4913105;29;20441;-79
2022/01/04 10:30:54;;;;;;;7.25;1.92;;;;;;;;;;4913146;29;20437;-80
2022/01/04 10:33:22;;;;;;;8.20;1.97;;;;;;;;;;4898555;29;20448;-80
2022/01/04 10:35:54;;;;;;;7.38;2.40;;;;;;;;;;4928943;29;20444;-80
2022/01/04 10:38:30;;;;;;;4.72;1.70;;;;;;;;;;4898148;29;20444;-79
2022/01/04 10:41:15;;;;;;;5.53;1.60;;;;;;;;;;4903773;29;20450;-79
2022/01/04 10:43:46;;;;;;;4.97;1.48;;;;;;;;;;4930804;29;20438;-77
2022/01/04 10:46:18;;;;;;;5.65;1.35;;;;;;;;;;4917324;29;20436;-77
2022/01/04 10:48:48;;;;;;;6.18;1.20;;;;;;;;;;4915134;29;20451;-78
2022/01/04 10:51:16;;;;;;;8.97;3.37;;;;;;;;;;4914422;29;20531;-78
2022/01/04 10:53:47;;;;;;;6.20;1.27;;;;;;;;;;4930826;29;20633;-79
2022/01/04 10:56:14;;;;;;;2.72;0.88;;;;;;;;;;4932197;29;20431;-78
2022/01/04 10:58:41;;;;;;;4.95;1.20;;;;;;;;;;4910306;29;20519;-78
2022/01/04 11:01:11;;;;;;;6.10;1.40;;;;;;;;;;4916321;29;20526;-78
2022/01/04 11:03:39;;;;;;;4.38;1.70;;;;;;;;;;4931099;29;20439;-77
2022/01/04 11:06:12;;;;;;;7.68;1.30;;;;;;;;;;4915039;29;20435;-77
2022/01/04 11:08:39;;;;;;;5.97;1.30;;;;;;;;;;4948536;28;20449;-78
2022/01/04 11:11:05;;;;;;;6.53;1.40;;;;;;;;;;4916062;29;20452;-77
2022/01/04 11:13:31;;;;;;;8.65;1.67;;;;;;;;;;4915745;29;20470;-77
2022/01/04 11:15:58;;;;;;;4.68;1.20;;;;;;;;;;4931542;29;20430;-78
2022/01/04 11:18:24;;;;;;;4.53;1.40;;;;;;;;;;4914938;29;20913;-78
2022/01/04 11:20:51;;;;;;;5.13;1.20;;;;;;;;;;4914452;29;20435;-78
2022/01/04 11:23:22;;;;;;;5.78;1.20;;;;;;;;;;4916050;29;20436;-79
2022/01/04 11:25:49;;;;;;;6.00;1.30;;;;;;;;;;4932621;29;20494;-80
2022/01/04 11:28:15;;;;;;;3.75;0.93;;;;;;;;;;4933459;29;20440;-79
2022/01/04 11:31:09;;;;;;;5.97;1.23;;;5.20;99.90;;;;;;4916049;29;20449;-78
2022/01/04 11:33:47;;;;;;;2.63;0.80;;;;;;;;;;4916076;29;20427;-78
2022/01/04 11:36:14;;;;;;;6.50;1.10;;;;;;;;;;4915670;29;20448;-80
2022/01/04 11:38:41;;;;;;;6.38;1.27;;;;;;;;;;4932604;29;20423;-78
2022/01/04 11:41:07;;;;;;;3.95;1.15;;;;;;;;;;4915218;29;20463;-79
2022/01/04 11:43:34;;;;;;;4.63;1.00;;;;;;;;;;4932575;29;20439;-80
2022/01/04 11:46:01;;;;;;;8.07;1.40;;;;;;;;;;4932826;29;20432;-79
2022/01/04 11:48:30;;;;;;;4.73;0.90;;;;;;;;;;4903479;29;20442;-81
2022/01/04 11:50:58;;;;;;;5.95;1.27;;;;;;;;;;4926342;29;20980;-80
2022/01/04 11:53:24;;;;;;;5.95;1.50;;;;;;;;;;4905485;29;20947;-79
2022/01/04 11:55:54;;;;;;;6.47;1.40;;;;;;;;;;4906515;29;20431;-80
2022/01/04 11:58:24;;;;;;;6.38;1.25;;;;;;;;;;4936558;29;20439;-79
2022/01/04 12:01:06;;;;;;;6.72;1.30;;;;;;;;;;4907118;29;20935;-78
2022/01/04 12:03:43;;;;;;;6.30;1.43;;;;;;;;;;4953167;28;20525;-81
2022/01/04 12:06:10;;;;;;;5.13;1.25;;;;;;;;;;4909176;29;20503;-80
2022/01/04 12:08:39;;;;;;;5.53;1.40;;;;;;;;;;4922333;29;20447;-81
2022/01/04 12:11:18;;;;;;;3.83;1.33;;;;;;;;;;4906481;29;20796;-79
2022/01/04 12:13:52;;;;;;;5.55;1.55;;;;;;;;;;4921978;29;20494;-88
2022/01/04 12:16:32;;;;;;;8.35;1.40;;;;;;;;;;4922562;29;20540;-80
2022/01/04 12:18:58;;;;;;;5.60;1.33;;;;;;;;;;4953578;28;20789;-80
2022/01/04 12:21:44;;;;;;;6.03;1.33;;;;;;;;;;4925238;29;20435;-80
2022/01/04 12:24:11;;;;;;;7.57;1.55;;;;;;;;;;4910336;29;20440;-79
2022/01/04 12:26:38;;;;;;;7.33;1.40;;;;;;;;;;4909216;29;20512;-79
2022/01/04 12:29:10;;;;;;;6.82;1.40;;;;;;;;;;4907011;29;20435;-80
2022/01/04 12:31:44;;;;;;;6.28;1.75;;;;;;;;;;4924759;29;20443;-80
2022/01/04 12:34:30;;;;;;;9.25;1.60;;;;;;;;;;4923113;29;20963;-80
2022/01/04 12:36:57;;;;;;;10.15;1.52;;;;;;;;;;4905569;29;20446;-79
2022/01/04 12:39:30;;;;;;;9.57;1.73;;;;;;;;;;4920553;29;20504;-79
2022/01/04 12:41:56;;;;;;;8.73;1.80;;;;;;;;;;4916156;29;20444;-82
2022/01/04 12:44:24;;;;;;;6.30;1.30;;;;;;;;;;4905754;29;20459;-82
2022/01/04 12:46:50;;;;;;;8.43;1.67;;;;;;;;;;4917755;29;20477;-81
2022/01/04 12:49:18;;;;;;;8.38;1.85;;;;;;;;;;4917630;29;20431;-79
2022/01/04 12:52:02;;;;;;;9.10;1.80;;;;;;;;;;4904843;29;21011;-78
2022/01/04 12:54:39;;;;;;;10.07;1.48;;;;;;;;;;4904621;29;20490;-78
2022/01/04 12:57:11;;;;;;;7.60;1.45;;;;;;;;;;4921228;29;20448;-78
2022/01/04 12:59:47;;;;;;;8.47;1.67;;;;;;;;;;4954370;28;20510;-79
2022/01/04 13:02:14;;;;;;;7.13;1.65;;;;;;;;;;4953419;28;20495;-78
2022/01/04 13:04:43;;;;;;;7.43;1.80;;;;;;;;;;4936629;29;20467;-78
2022/01/04 13:07:20;;;;;;;8.77;2.00;;;;;;;;;;4919155;29;20423;-79
2022/01/04 13:10:12;;;;;;;12.15;2.35;;;;;;;;;;4905798;29;20463;-81
2022/01/04 13:12:40;;;;;;;7.93;1.70;;;;;;;;;;4902184;29;20443;-80
2022/01/04 13:15:08;;;;;;;10.82;2.40;;;5.30;99.90;;;;;;4920965;29;20431;-79
2022/01/04 13:17:34;;;;;;;9.33;2.10;;;;;;;;;;4925358;29;20559;-79
2022/01/04 13:20:00;;;;;;;7.93;1.50;;;;;;;;;;4922122;29;20448;-80
2022/01/04 13:22:28;;;;;;;6.07;1.50;;;;;;;;;;4922292;29;20431;-79
2022/01/04 13:25:02;;;;;;;10.13;1.90;;;;;;;;;;4903539;29;20881;-80
2022/01/04 13:27:28;;;;;;;8.23;1.50;;;;;;;;;;4921435;29;20446;-79
2022/01/04 13:29:54;;;;;;;9.23;1.90;;;;;;;;;;4920113;29;20461;-79
2022/01/04 13:32:24;;;;;;;8.35;1.98;;;;;;;;;;4925111;29;20435;-79
2022/01/04 13:34:51;;;;;;;9.50;2.58;;;;;;;;;;4921240;29;20439;-79
2022/01/04 13:37:19;;;;;;;12.48;6.03;;;;;;;;;;4921460;29;20535;-80
2022/01/04 13:39:45;;;;;;;7.53;2.57;;;;;;;;;;4908183;29;20423;-79
2022/01/04 13:42:36;;;;;;;7.85;1.92;;;;;;;;;;4919552;29;20435;-80
2022/01/04 13:45:08;;;;;;;6.70;1.70;;;;;;;;;;4910077;29;20442;-79
2022/01/04 13:47:36;;;;;;;5.55;1.60;;;;;;;;;;4922729;29;20434;-81
2022/01/04 13:50:11;;;;;;;7.35;1.80;;;;;;;;;;4903397;29;20509;-80
2022/01/04 13:52:37;;;;;;;9.48;1.73;;;;;;;;;;4949794;28;20451;-79
2022/01/04 13:55:04;;;;;;;8.47;1.90;;;;;;;;;;4907734;29;20441;-80
2022/01/04 13:57:31;;;;;;;6.32;1.70;;;;;;;;;;4909250;29;20512;-80
2022/01/04 13:59:57;;;;;;;9.25;1.60;;;;;;;;;;4928689;29;20492;-80
2022/01/04 14:02:27;;;;;;;9.38;1.80;;;;;;;;;;4921687;29;20449;-80
2022/01/04 14:05:12;;;;;;;7.43;1.52;;;;;;;;;;4925060;29;20935;-80
2022/01/04 14:07:38;;;;;;;6.70;1.63;;;;;;;;;;4926615;29;20487;-81
2022/01/04 14:10:04;;;;;;;7.72;1.70;;;;;;;;;;4911411;29;20452;-81
2022/01/04 14:12:30;;;;;;;7.15;1.73;;;;;;;;;;4925511;29;20467;-79
2022/01/04 14:14:57;;;;;;;8.98;1.90;;;;;;;;;;4938789;29;20447;-80
2022/01/04 14:17:30;;;;;;;8.95;1.60;;;;;;;;;;4939415;29;20452;-80
2022/01/04 14:20:02;;;;;;;8.45;1.80;;;;;;;;;;4941962;29;20426;-80
2022/01/04 14:22:33;;;;;;;9.57;2.30;;;;;;;;;;4919713;29;20438;-80
2022/01/04 14:25:02;;;;;;;8.00;2.03;;;;;;;;;;4934740;29;20435;-79
2022/01/04 14:27:29;;;;;;;8.52;2.50;;;;;;;;;;4924207;29;20510;-80
2022/01/04 14:30:02;;;;;;;9.98;2.33;;;;;;;;;;4953818;28;20439;-80
2022/01/04 14:32:39;;;;;;;6.90;1.90;;;;;;;;;;4925218;29;20459;-80
2022/01/04 14:35:16;;;;;;;8.40;2.03;;;;;;;;;;4954671;28;20439;-81
2022/01/04 14:37:43;;;;;;;10.00;2.90;;;;;;;;;;4922831;29;20435;-79
2022/01/04 14:40:11;;;;;;;11.82;3.83;;;;;;;;;;4952482;28;20443;-79
2022/01/04 14:42:37;;;;;;;12.10;4.82;;;;;;;;;;4918022;29;20461;-80